Terminal Aerodrome Forecast
Issued by NWS

Home | Current Version | Previous Version | Text Only | Print | Product List | Glossary On
Versions: 1 2 3 4 5 6 7 8 9 10 11 12 13 14 15 16 17 18 19
000
FTUS44 KTSA 281100
TAFMLC
TAF
KMLC 281140Z 2812/2912 11007KT 3SM TSRA BKN025 BKN040CB
     FM281400 16007KT 5SM TSRA SCT030 OVC050CB
      TEMPO 2814/2816 VRB15G35KT 2SM TSRA OVC030CB
     FM281800 20008KT P6SM SCT050 OVC100
     FM290500 14004KT P6SM OVC100 PROB30 2906/2910 4SM TSRA
      BKN050CB=

USA.gov is the U.S. government's official web portal to all federal, state and local government web resources and services.